ASA1492 KSAN-KDEN
Flight info
| Callsign | ASA1492 |
|---|---|
| Flight time | 1h 44m |
| Altitude | 37000 |
| Route | ZZOOO4 MTBAL EED J236 TBC CRUDD TBARR4 |
| Aircraft | B38M/M-SDE1FGHILORVWXY/HB1 |
Departure
| Time | 2026-04-25 22:49 |
|---|---|
| Airport | San Diego International Airport (KSAN) |
Arrival
| Time | 2026-04-26 00:33 |
|---|---|
| Airport | Denver International Airport (KDEN) |
| Time | Latitude | Longitude | Altitude | Speed | Heading |
|---|---|---|---|---|---|
| 2026-04-25 22:02 | 32.73414 | -117.20116 | 23 ft | 0 kts | 165° |
| 2026-04-25 22:40 | 32.73424 | -117.20119 | 26 ft | 3 kts | 165° |
| 2026-04-25 22:40 | 32.73443 | -117.20125 | 25 ft | 3 kts | 165° |
| 2026-04-25 22:40 | 32.73463 | -117.20131 | 28 ft | 3 kts | 165° |
| 2026-04-25 22:41 | 32.73482 | -117.20138 | 27 ft | 3 kts | 165° |
| 2026-04-25 22:41 | 32.73499 | -117.20143 | 27 ft | 1 kts | 165° |
| 2026-04-25 22:41 | 32.73501 | -117.20144 | 26 ft | 0 kts | 165° |
| 2026-04-25 22:43 | 32.73499 | -117.20143 | 27 ft | 1 kts | 159° |
| 2026-04-25 22:43 | 32.73491 | -117.20129 | 26 ft | 3 kts | 109° |
| 2026-04-25 22:44 | 32.73488 | -117.20094 | 25 ft | 6 kts | 90° |
| 2026-04-25 22:44 | 32.73501 | -117.20026 | 25 ft | 11 kts | 78° |
| 2026-04-25 22:44 | 32.73486 | -117.19918 | 27 ft | 16 kts | 107° |
| 2026-04-25 22:44 | 32.73451 | -117.19772 | 29 ft | 22 kts | 105° |
| 2026-04-25 22:45 | 32.73402 | -117.19572 | 28 ft | 28 kts | 107° |
| 2026-04-25 22:45 | 32.73346 | -117.19342 | 25 ft | 31 kts | 106° |
| 2026-04-25 22:45 | 32.73284 | -117.19090 | 25 ft | 32 kts | 105° |
| 2026-04-25 22:45 | 32.73222 | -117.18833 | 28 ft | 33 kts | 106° |
| 2026-04-25 22:46 | 32.73158 | -117.18571 | 30 ft | 34 kts | 104° |
| 2026-04-25 22:46 | 32.73091 | -117.18292 | 28 ft | 36 kts | 106° |
| 2026-04-25 22:46 | 32.73044 | -117.18100 | 24 ft | 37 kts | 107° |
| 2026-04-25 22:46 | 32.72954 | -117.17727 | 24 ft | 28 kts | 104° |
| 2026-04-25 22:47 | 32.73007 | -117.17579 | 29 ft | 16 kts | 18° |
| 2026-04-25 22:47 | 32.73032 | -117.17589 | 27 ft | 4 kts | 313° |
| 2026-04-25 22:47 | 32.73037 | -117.17617 | 26 ft | 5 kts | 275° |
| 2026-04-25 22:47 | 32.73046 | -117.17681 | 26 ft | 10 kts | 284° |
| 2026-04-25 22:48 | 32.73074 | -117.17799 | 27 ft | 21 kts | 285° |
| 2026-04-25 22:48 | 32.73135 | -117.18052 | 25 ft | 55 kts | 285° |
| 2026-04-25 22:48 | 32.73307 | -117.18805 | 24 ft | 134 kts | 284° |
| 2026-04-25 22:48 | 32.73617 | -117.20102 | 198 ft | 187 kts | 283° |
| 2026-04-25 22:49 | 32.74012 | -117.21712 | 899 ft | 217 kts | 285° |
| 2026-04-25 22:49 | 32.74460 | -117.23476 | 2121 ft | 221 kts | 284° |
| 2026-04-25 22:49 | 32.74821 | -117.25168 | 3752 ft | 203 kts | 281° |
| 2026-04-25 22:49 | 32.75213 | -117.26870 | 4501 ft | 225 kts | 285° |
| 2026-04-25 22:50 | 32.75676 | -117.28694 | 5119 ft | 236 kts | 285° |
| 2026-04-25 22:50 | 32.76140 | -117.30558 | 6026 ft | 237 kts | 284° |
| 2026-04-25 22:50 | 32.76501 | -117.32487 | 6764 ft | 242 kts | 272° |
| 2026-04-25 22:50 | 32.76191 | -117.34428 | 7492 ft | 242 kts | 243° |
| 2026-04-25 22:51 | 32.75079 | -117.35926 | 8286 ft | 244 kts | 215° |
| 2026-04-25 22:51 | 32.73506 | -117.36612 | 9204 ft | 248 kts | 188° |
| 2026-04-25 22:51 | 32.71759 | -117.36304 | 9801 ft | 261 kts | 161° |
| 2026-04-25 22:51 | 32.70342 | -117.34918 | 9947 ft | 272 kts | 133° |
| 2026-04-25 22:52 | 32.69176 | -117.33146 | 9854 ft | 270 kts | 135° |
| 2026-04-25 22:52 | 32.67970 | -117.31426 | 9952 ft | 271 kts | 135° |
| 2026-04-25 22:52 | 32.66771 | -117.29723 | 9996 ft | 272 kts | 135° |
| 2026-04-25 22:52 | 32.65551 | -117.27993 | 9935 ft | 273 kts | 136° |
| 2026-04-25 22:53 | 32.64331 | -117.26269 | 9724 ft | 270 kts | 135° |
| 2026-04-25 22:53 | 32.63295 | -117.24365 | 9789 ft | 290 kts | 115° |
| 2026-04-25 22:53 | 32.62916 | -117.21955 | 9884 ft | 303 kts | 99° |
| 2026-04-25 22:53 | 32.62691 | -117.19453 | 9930 ft | 309 kts | 100° |
| 2026-04-25 22:54 | 32.62454 | -117.16904 | 9964 ft | 311 kts | 100° |
| 2026-04-25 22:54 | 32.62218 | -117.14339 | 9996 ft | 313 kts | 100° |
| 2026-04-25 22:54 | 32.62005 | -117.11760 | 9984 ft | 316 kts | 95° |
| 2026-04-25 22:54 | 32.62364 | -117.09210 | 9981 ft | 320 kts | 72° |
| 2026-04-25 22:55 | 32.63142 | -117.06714 | 10002 ft | 322 kts | 71° |
| 2026-04-25 22:55 | 32.63929 | -117.04223 | 9976 ft | 322 kts | 71° |
| 2026-04-25 22:55 | 32.64716 | -117.01770 | 9979 ft | 322 kts | 71° |
| 2026-04-25 22:55 | 32.65521 | -116.99282 | 9973 ft | 322 kts | 70° |
| 2026-04-25 22:56 | 32.66315 | -116.96796 | 9975 ft | 321 kts | 74° |
| 2026-04-25 22:56 | 32.66630 | -116.94204 | 10029 ft | 320 kts | 92° |
| 2026-04-25 22:56 | 32.66707 | -116.91542 | 10745 ft | 328 kts | 91° |
| 2026-04-25 22:56 | 32.66788 | -116.88766 | 11283 ft | 344 kts | 92° |
| 2026-04-25 22:57 | 32.66857 | -116.85905 | 11874 ft | 356 kts | 92° |
| 2026-04-25 22:57 | 32.66933 | -116.82928 | 12595 ft | 364 kts | 92° |
| 2026-04-25 22:57 | 32.67087 | -116.79901 | 13366 ft | 373 kts | 83° |
| 2026-04-25 22:57 | 32.67966 | -116.76965 | 14127 ft | 383 kts | 60° |
| 2026-04-25 22:58 | 32.69670 | -116.74522 | 14818 ft | 386 kts | 37° |
| 2026-04-25 22:58 | 32.71965 | -116.72906 | 15481 ft | 384 kts | 17° |
| 2026-04-25 22:58 | 32.74467 | -116.71725 | 16135 ft | 389 kts | 18° |
| 2026-04-25 22:58 | 32.76960 | -116.70510 | 16832 ft | 393 kts | 18° |
| 2026-04-25 22:59 | 32.79509 | -116.69265 | 17522 ft | 396 kts | 18° |
| 2026-04-25 22:59 | 32.82068 | -116.68012 | 18235 ft | 399 kts | 18° |
| 2026-04-25 22:59 | 32.84656 | -116.66743 | 18784 ft | 403 kts | 18° |
| 2026-04-25 22:59 | 32.87263 | -116.65464 | 19370 ft | 406 kts | 18° |
| 2026-04-25 23:00 | 32.89885 | -116.64178 | 19923 ft | 409 kts | 18° |
| 2026-04-25 23:00 | 32.92506 | -116.62891 | 20465 ft | 412 kts | 18° |
| 2026-04-25 23:00 | 32.95169 | -116.61583 | 21004 ft | 415 kts | 18° |
| 2026-04-25 23:00 | 32.97859 | -116.60260 | 21529 ft | 419 kts | 19° |
| 2026-04-25 23:01 | 33.00561 | -116.58921 | 22063 ft | 422 kts | 20° |
| 2026-04-25 23:01 | 33.03276 | -116.57501 | 22575 ft | 426 kts | 20° |
| 2026-04-25 23:01 | 33.05998 | -116.56077 | 23062 ft | 429 kts | 20° |
| 2026-04-25 23:01 | 33.08739 | -116.54647 | 23608 ft | 430 kts | 20° |
| 2026-04-25 23:02 | 33.11461 | -116.53227 | 24019 ft | 433 kts | 20° |
| 2026-04-25 23:02 | 33.14235 | -116.51780 | 24420 ft | 436 kts | 20° |
| 2026-04-25 23:02 | 33.17023 | -116.50323 | 24810 ft | 439 kts | 20° |
| 2026-04-25 23:02 | 33.19845 | -116.48848 | 25217 ft | 442 kts | 20° |
| 2026-04-25 23:03 | 33.22675 | -116.47368 | 25611 ft | 445 kts | 19° |
| 2026-04-25 23:03 | 33.25497 | -116.45891 | 25971 ft | 449 kts | 19° |
| 2026-04-25 23:03 | 33.28364 | -116.44389 | 26378 ft | 451 kts | 19° |
| 2026-04-25 23:03 | 33.31257 | -116.42873 | 26775 ft | 453 kts | 19° |
| 2026-04-25 23:04 | 33.34162 | -116.41347 | 27117 ft | 457 kts | 19° |
| 2026-04-25 23:04 | 33.37085 | -116.39796 | 27477 ft | 461 kts | 21° |
| 2026-04-25 23:04 | 33.39762 | -116.37705 | 27820 ft | 471 kts | 39° |
| 2026-04-25 23:04 | 33.41967 | -116.34774 | 28177 ft | 476 kts | 53° |
| 2026-04-25 23:05 | 33.43940 | -116.31555 | 28480 ft | 480 kts | 52° |
| 2026-04-25 23:05 | 33.45928 | -116.28302 | 28839 ft | 483 kts | 53° |
| 2026-04-25 23:05 | 33.47881 | -116.25066 | 29115 ft | 486 kts | 53° |
| 2026-04-25 23:05 | 33.49871 | -116.21749 | 29384 ft | 489 kts | 53° |
| 2026-04-25 23:06 | 33.51855 | -116.18433 | 29734 ft | 491 kts | 53° |
| 2026-04-25 23:06 | 33.53858 | -116.15083 | 29989 ft | 495 kts | 53° |
| 2026-04-25 23:06 | 33.55871 | -116.11712 | 30240 ft | 498 kts | 53° |
| 2026-04-25 23:06 | 33.57869 | -116.08363 | 30483 ft | 501 kts | 53° |
| 2026-04-25 23:07 | 33.59910 | -116.04961 | 30716 ft | 504 kts | 51° |
| 2026-04-25 23:07 | 33.62214 | -116.01767 | 30808 ft | 505 kts | 45° |
| 2026-04-25 23:07 | 33.66942 | -115.95501 | 30813 ft | 505 kts | 45° |
| 2026-04-25 23:08 | 33.71631 | -115.89294 | 30820 ft | 504 kts | 45° |
| 2026-04-25 23:08 | 33.76344 | -115.83044 | 30798 ft | 503 kts | 45° |
| 2026-04-25 23:09 | 33.81056 | -115.76784 | 30800 ft | 504 kts | 46° |
| 2026-04-25 23:09 | 33.85741 | -115.70552 | 30786 ft | 504 kts | 46° |
| 2026-04-25 23:10 | 33.90448 | -115.64278 | 30791 ft | 504 kts | 46° |
| 2026-04-25 23:10 | 33.95115 | -115.58046 | 30780 ft | 502 kts | 45° |
| 2026-04-25 23:11 | 33.99812 | -115.51761 | 30890 ft | 503 kts | 46° |
| 2026-04-25 23:11 | 34.02148 | -115.48633 | 31207 ft | 504 kts | 46° |
| 2026-04-25 23:11 | 34.04484 | -115.45501 | 31413 ft | 508 kts | 46° |
| 2026-04-25 23:12 | 34.06857 | -115.42317 | 31657 ft | 510 kts | 46° |
| 2026-04-25 23:12 | 34.09254 | -115.39098 | 31879 ft | 513 kts | 46° |
| 2026-04-25 23:12 | 34.11651 | -115.35876 | 32081 ft | 516 kts | 46° |
| 2026-04-25 23:12 | 34.14025 | -115.32681 | 32311 ft | 519 kts | 46° |
| 2026-04-25 23:13 | 34.16442 | -115.29426 | 32548 ft | 521 kts | 46° |
| 2026-04-25 23:13 | 34.18870 | -115.26152 | 32781 ft | 524 kts | 46° |
| 2026-04-25 23:13 | 34.21312 | -115.22858 | 33001 ft | 527 kts | 46° |
| 2026-04-25 23:13 | 34.23765 | -115.19544 | 33211 ft | 530 kts | 46° |
| 2026-04-25 23:14 | 34.26232 | -115.16209 | 33427 ft | 532 kts | 46° |
| 2026-04-25 23:14 | 34.28702 | -115.12866 | 33715 ft | 533 kts | 46° |
| 2026-04-25 23:14 | 34.31152 | -115.09548 | 33992 ft | 533 kts | 46° |
| 2026-04-25 23:14 | 34.33622 | -115.06200 | 34333 ft | 532 kts | 46° |
| 2026-04-25 23:15 | 34.36094 | -115.02845 | 34619 ft | 531 kts | 46° |
| 2026-04-25 23:15 | 34.38557 | -114.99500 | 34858 ft | 532 kts | 46° |
| 2026-04-25 23:15 | 34.41012 | -114.96161 | 35141 ft | 531 kts | 45° |
| 2026-04-25 23:15 | 34.43439 | -114.92858 | 35388 ft | 531 kts | 45° |
| 2026-04-25 23:16 | 34.45894 | -114.89513 | 35626 ft | 531 kts | 45° |
| 2026-04-25 23:16 | 34.48352 | -114.86163 | 35862 ft | 531 kts | 45° |
| 2026-04-25 23:16 | 34.50813 | -114.82803 | 36103 ft | 531 kts | 45° |
| 2026-04-25 23:16 | 34.53272 | -114.79444 | 36322 ft | 531 kts | 45° |
| 2026-04-25 23:17 | 34.55728 | -114.76086 | 36536 ft | 532 kts | 45° |
| 2026-04-25 23:17 | 34.58153 | -114.72766 | 36722 ft | 532 kts | 45° |
| 2026-04-25 23:17 | 34.63076 | -114.66017 | 36740 ft | 531 kts | 45° |
| 2026-04-25 23:18 | 34.67948 | -114.59326 | 36758 ft | 528 kts | 46° |
| 2026-04-25 23:18 | 34.72829 | -114.52613 | 36764 ft | 528 kts | 46° |
| 2026-04-25 23:19 | 34.77372 | -114.45636 | 36716 ft | 529 kts | 62° |
| 2026-04-25 23:19 | 34.80876 | -114.37714 | 36680 ft | 529 kts | 61° |
| 2026-04-25 23:20 | 34.84340 | -114.29909 | 36736 ft | 522 kts | 61° |
| 2026-04-25 23:20 | 34.87758 | -114.22153 | 36713 ft | 521 kts | 61° |
| 2026-04-25 23:21 | 34.91188 | -114.14352 | 36750 ft | 522 kts | 62° |
| 2026-04-25 23:21 | 34.94602 | -114.06570 | 36687 ft | 522 kts | 62° |
| 2026-04-25 23:22 | 34.98017 | -113.98767 | 36735 ft | 522 kts | 61° |
| 2026-04-25 23:23 | 35.03140 | -113.87027 | 36745 ft | 521 kts | 62° |
| 2026-04-25 23:23 | 35.06523 | -113.79251 | 36705 ft | 519 kts | 61° |
| 2026-04-25 23:24 | 35.09909 | -113.71453 | 36704 ft | 519 kts | 61° |
| 2026-04-25 23:24 | 35.13271 | -113.63689 | 36736 ft | 519 kts | 61° |
| 2026-04-25 23:25 | 35.16666 | -113.55832 | 36745 ft | 525 kts | 62° |
| 2026-04-25 23:25 | 35.20096 | -113.47880 | 36736 ft | 532 kts | 62° |
| 2026-04-25 23:26 | 35.23548 | -113.39853 | 36751 ft | 536 kts | 61° |
| 2026-04-25 23:26 | 35.27018 | -113.31764 | 36772 ft | 536 kts | 61° |
| 2026-04-25 23:27 | 35.30458 | -113.23726 | 36777 ft | 536 kts | 62° |
| 2026-04-25 23:27 | 35.33917 | -113.15625 | 36785 ft | 536 kts | 62° |
| 2026-04-25 23:28 | 35.37375 | -113.07510 | 36797 ft | 536 kts | 62° |
| 2026-04-25 23:28 | 35.40819 | -112.99404 | 36806 ft | 536 kts | 62° |
| 2026-04-25 23:29 | 35.44252 | -112.91305 | 36806 ft | 536 kts | 62° |
| 2026-04-25 23:29 | 35.47664 | -112.83237 | 36828 ft | 536 kts | 62° |
| 2026-04-25 23:30 | 35.51095 | -112.75105 | 36818 ft | 533 kts | 62° |
| 2026-04-25 23:30 | 35.54493 | -112.67029 | 36852 ft | 533 kts | 62° |
| 2026-04-25 23:31 | 35.57895 | -112.58925 | 36837 ft | 533 kts | 62° |
| 2026-04-25 23:31 | 35.61271 | -112.50864 | 36836 ft | 533 kts | 62° |
| 2026-04-25 23:32 | 35.64664 | -112.42744 | 36856 ft | 533 kts | 62° |
| 2026-04-25 23:32 | 35.68031 | -112.34663 | 36845 ft | 533 kts | 62° |
| 2026-04-25 23:33 | 35.70840 | -112.27908 | 36878 ft | 533 kts | 62° |
| 2026-04-25 23:33 | 35.74216 | -112.19771 | 36872 ft | 532 kts | 62° |
| 2026-04-25 23:34 | 35.77582 | -112.11636 | 36845 ft | 533 kts | 62° |
| 2026-04-25 23:34 | 35.80943 | -112.03495 | 36855 ft | 532 kts | 62° |
| 2026-04-25 23:35 | 35.84271 | -111.95412 | 36823 ft | 531 kts | 62° |
| 2026-04-25 23:35 | 35.87618 | -111.87264 | 36890 ft | 532 kts | 62° |
| 2026-04-25 23:36 | 35.90956 | -111.79118 | 36834 ft | 532 kts | 62° |
| 2026-04-25 23:36 | 35.94282 | -111.70982 | 36784 ft | 533 kts | 62° |
| 2026-04-25 23:37 | 35.97617 | -111.62803 | 36780 ft | 533 kts | 62° |
| 2026-04-25 23:37 | 36.00933 | -111.54652 | 36769 ft | 532 kts | 62° |
| 2026-04-25 23:38 | 36.04255 | -111.46469 | 36747 ft | 533 kts | 62° |
| 2026-04-25 23:38 | 36.07578 | -111.38263 | 36749 ft | 532 kts | 62° |
| 2026-04-25 23:39 | 36.10869 | -111.30118 | 36737 ft | 533 kts | 62° |
| 2026-04-25 23:39 | 36.14456 | -111.22085 | 36737 ft | 532 kts | 59° |
| 2026-04-25 23:40 | 36.18076 | -111.14139 | 36747 ft | 532 kts | 59° |
| 2026-04-25 23:40 | 36.21702 | -111.06128 | 36738 ft | 532 kts | 59° |
| 2026-04-25 23:41 | 36.25314 | -110.98128 | 36721 ft | 531 kts | 59° |
| 2026-04-25 23:41 | 36.28898 | -110.90172 | 36730 ft | 532 kts | 59° |
| 2026-04-25 23:42 | 36.32510 | -110.82134 | 36723 ft | 531 kts | 59° |
| 2026-04-25 23:42 | 36.36078 | -110.74174 | 36711 ft | 529 kts | 59° |
| 2026-04-25 23:43 | 36.39657 | -110.66172 | 36707 ft | 529 kts | 59° |
| 2026-04-25 23:43 | 36.43198 | -110.58235 | 36696 ft | 528 kts | 59° |
| 2026-04-25 23:44 | 36.46760 | -110.50232 | 36698 ft | 529 kts | 59° |
| 2026-04-25 23:44 | 36.50320 | -110.42212 | 36690 ft | 528 kts | 59° |
| 2026-04-25 23:45 | 36.53840 | -110.34265 | 36706 ft | 527 kts | 59° |
| 2026-04-25 23:45 | 36.57372 | -110.26273 | 36684 ft | 527 kts | 59° |
| 2026-04-25 23:46 | 36.60906 | -110.18254 | 36669 ft | 527 kts | 59° |
| 2026-04-25 23:46 | 36.64410 | -110.10286 | 36680 ft | 527 kts | 59° |
| 2026-04-25 23:47 | 36.67940 | -110.02237 | 36662 ft | 528 kts | 59° |
| 2026-04-25 23:47 | 36.71440 | -109.94238 | 36658 ft | 528 kts | 59° |
| 2026-04-25 23:48 | 36.74954 | -109.86188 | 36652 ft | 528 kts | 59° |
| 2026-04-25 23:48 | 36.78445 | -109.78171 | 36673 ft | 528 kts | 59° |
| 2026-04-25 23:49 | 36.81950 | -109.70102 | 36646 ft | 528 kts | 59° |
| 2026-04-25 23:49 | 36.85457 | -109.62005 | 36645 ft | 528 kts | 59° |
| 2026-04-25 23:50 | 36.88925 | -109.53982 | 36654 ft | 528 kts | 59° |
| 2026-04-25 23:50 | 36.92416 | -109.45885 | 36640 ft | 528 kts | 59° |
| 2026-04-25 23:51 | 36.95879 | -109.37833 | 36649 ft | 528 kts | 59° |
| 2026-04-25 23:51 | 36.99361 | -109.29716 | 36658 ft | 528 kts | 59° |
| 2026-04-25 23:52 | 37.02813 | -109.21649 | 36655 ft | 528 kts | 59° |
| 2026-04-25 23:52 | 37.06285 | -109.13517 | 36647 ft | 528 kts | 59° |
| 2026-04-25 23:53 | 37.09752 | -109.05372 | 36700 ft | 529 kts | 59° |
| 2026-04-25 23:53 | 37.13194 | -108.97269 | 36674 ft | 527 kts | 60° |
| 2026-04-25 23:54 | 37.16620 | -108.89183 | 36684 ft | 528 kts | 60° |
| 2026-04-25 23:54 | 37.20064 | -108.81033 | 36700 ft | 528 kts | 60° |
| 2026-04-25 23:55 | 37.23498 | -108.72887 | 36696 ft | 528 kts | 60° |
| 2026-04-25 23:55 | 37.26933 | -108.64716 | 36882 ft | 528 kts | 60° |
| 2026-04-25 23:56 | 37.30344 | -108.56582 | 36877 ft | 528 kts | 60° |
| 2026-04-25 23:56 | 37.33769 | -108.48394 | 36868 ft | 528 kts | 60° |
| 2026-04-25 23:57 | 37.37170 | -108.40245 | 36822 ft | 528 kts | 60° |
| 2026-04-25 23:57 | 37.40571 | -108.32072 | 36803 ft | 527 kts | 60° |
| 2026-04-25 23:58 | 37.43983 | -108.23852 | 36767 ft | 527 kts | 60° |
| 2026-04-25 23:58 | 37.47356 | -108.15705 | 36808 ft | 527 kts | 60° |
| 2026-04-25 23:59 | 37.50749 | -108.07490 | 36780 ft | 527 kts | 60° |
| 2026-04-25 23:59 | 37.54109 | -107.99330 | 36773 ft | 527 kts | 60° |
| 2026-04-26 00:00 | 37.57482 | -107.91124 | 36780 ft | 527 kts | 60° |
| 2026-04-26 00:00 | 37.60828 | -107.82960 | 36811 ft | 528 kts | 60° |
| 2026-04-26 00:01 | 37.64200 | -107.74718 | 36796 ft | 527 kts | 60° |
| 2026-04-26 00:01 | 37.67563 | -107.66477 | 36784 ft | 528 kts | 60° |
| 2026-04-26 00:02 | 37.70909 | -107.58252 | 36836 ft | 528 kts | 60° |
| 2026-04-26 00:02 | 37.74308 | -107.50041 | 36823 ft | 524 kts | 53° |
| 2026-04-26 00:02 | 37.76518 | -107.46515 | 36824 ft | 513 kts | 39° |
| 2026-04-26 00:03 | 37.79104 | -107.43394 | 36842 ft | 514 kts | 38° |
| 2026-04-26 00:03 | 37.84287 | -107.37188 | 36852 ft | 513 kts | 37° |
| 2026-04-26 00:04 | 37.89498 | -107.31024 | 36825 ft | 511 kts | 37° |
| 2026-04-26 00:04 | 37.94699 | -107.24869 | 36805 ft | 511 kts | 37° |
| 2026-04-26 00:05 | 37.99877 | -107.18726 | 36808 ft | 512 kts | 37° |
| 2026-04-26 00:05 | 38.05081 | -107.12540 | 36803 ft | 512 kts | 37° |
| 2026-04-26 00:06 | 38.10295 | -107.06329 | 36832 ft | 512 kts | 37° |
| 2026-04-26 00:06 | 38.15352 | -107.00045 | 36782 ft | 515 kts | 45° |
| 2026-04-26 00:07 | 38.19981 | -106.93059 | 36790 ft | 516 kts | 45° |
| 2026-04-26 00:07 | 38.24600 | -106.86047 | 36771 ft | 516 kts | 45° |
| 2026-04-26 00:08 | 38.29176 | -106.79082 | 36785 ft | 516 kts | 45° |
| 2026-04-26 00:08 | 38.33785 | -106.72051 | 36771 ft | 515 kts | 45° |
| 2026-04-26 00:09 | 38.38382 | -106.65024 | 36814 ft | 515 kts | 45° |
| 2026-04-26 00:09 | 38.42940 | -106.58042 | 36753 ft | 512 kts | 45° |
| 2026-04-26 00:10 | 38.47506 | -106.51031 | 36768 ft | 513 kts | 45° |
| 2026-04-26 00:10 | 38.52063 | -106.44019 | 36781 ft | 512 kts | 45° |
| 2026-04-26 00:11 | 38.56587 | -106.37043 | 36793 ft | 512 kts | 45° |
| 2026-04-26 00:11 | 38.61138 | -106.30011 | 36791 ft | 510 kts | 45° |
| 2026-04-26 00:11 | 38.63390 | -106.26528 | 36053 ft | 511 kts | 45° |
| 2026-04-26 00:12 | 38.65691 | -106.22999 | 35009 ft | 520 kts | 46° |
| 2026-04-26 00:12 | 38.67997 | -106.19478 | 34308 ft | 523 kts | 46° |
| 2026-04-26 00:12 | 38.70332 | -106.15905 | 33824 ft | 518 kts | 46° |
| 2026-04-26 00:12 | 38.72639 | -106.12374 | 33309 ft | 512 kts | 46° |
| 2026-04-26 00:13 | 38.74897 | -106.08914 | 32680 ft | 510 kts | 46° |
| 2026-04-26 00:13 | 38.77166 | -106.05430 | 31996 ft | 509 kts | 47° |
| 2026-04-26 00:13 | 38.79434 | -106.01948 | 31316 ft | 508 kts | 47° |
| 2026-04-26 00:13 | 38.81693 | -105.98473 | 30698 ft | 506 kts | 46° |
| 2026-04-26 00:14 | 38.83947 | -105.95004 | 30046 ft | 503 kts | 46° |
| 2026-04-26 00:14 | 38.86159 | -105.91595 | 29144 ft | 492 kts | 47° |
| 2026-04-26 00:14 | 38.88321 | -105.88254 | 28508 ft | 479 kts | 47° |
| 2026-04-26 00:14 | 38.90405 | -105.85010 | 27845 ft | 474 kts | 47° |
| 2026-04-26 00:15 | 38.92503 | -105.81744 | 27296 ft | 470 kts | 47° |
| 2026-04-26 00:15 | 38.94574 | -105.78517 | 26698 ft | 465 kts | 47° |
| 2026-04-26 00:15 | 38.96619 | -105.75326 | 26103 ft | 458 kts | 48° |
| 2026-04-26 00:15 | 38.98628 | -105.72192 | 25459 ft | 449 kts | 48° |
| 2026-04-26 00:16 | 39.00603 | -105.69106 | 24766 ft | 443 kts | 48° |
| 2026-04-26 00:16 | 39.02532 | -105.66110 | 24236 ft | 438 kts | 48° |
| 2026-04-26 00:16 | 39.04478 | -105.63089 | 23960 ft | 438 kts | 48° |
| 2026-04-26 00:16 | 39.06415 | -105.60076 | 23571 ft | 436 kts | 49° |
| 2026-04-26 00:17 | 39.08345 | -105.57071 | 23040 ft | 431 kts | 49° |
| 2026-04-26 00:17 | 39.10251 | -105.54102 | 22506 ft | 427 kts | 49° |
| 2026-04-26 00:17 | 39.12125 | -105.51180 | 22060 ft | 417 kts | 49° |
| 2026-04-26 00:17 | 39.13922 | -105.48375 | 21659 ft | 407 kts | 49° |
| 2026-04-26 00:18 | 39.15709 | -105.45552 | 21182 ft | 404 kts | 49° |
| 2026-04-26 00:18 | 39.17473 | -105.42754 | 20738 ft | 400 kts | 49° |
| 2026-04-26 00:18 | 39.19220 | -105.39982 | 20325 ft | 397 kts | 49° |
| 2026-04-26 00:18 | 39.20963 | -105.37214 | 19918 ft | 392 kts | 49° |
| 2026-04-26 00:19 | 39.22659 | -105.34519 | 19535 ft | 391 kts | 49° |
| 2026-04-26 00:19 | 39.24369 | -105.31799 | 19121 ft | 390 kts | 49° |
| 2026-04-26 00:19 | 39.26082 | -105.29073 | 18688 ft | 389 kts | 49° |
| 2026-04-26 00:19 | 39.27721 | -105.26345 | 18226 ft | 380 kts | 57° |
| 2026-04-26 00:20 | 39.28691 | -105.23228 | 17744 ft | 371 kts | 80° |
| 2026-04-26 00:20 | 39.29077 | -105.19989 | 17344 ft | 359 kts | 82° |
| 2026-04-26 00:20 | 39.29467 | -105.16842 | 16954 ft | 353 kts | 82° |
| 2026-04-26 00:20 | 39.29840 | -105.13747 | 16590 ft | 351 kts | 83° |
| 2026-04-26 00:21 | 39.30210 | -105.10639 | 16186 ft | 348 kts | 83° |
| 2026-04-26 00:21 | 39.30571 | -105.07577 | 15795 ft | 340 kts | 83° |
| 2026-04-26 00:21 | 39.30804 | -105.05587 | 15552 ft | 334 kts | 83° |
| 2026-04-26 00:21 | 39.31148 | -105.02656 | 15172 ft | 325 kts | 83° |
| 2026-04-26 00:22 | 39.31526 | -104.99812 | 14869 ft | 314 kts | 78° |
| 2026-04-26 00:22 | 39.32029 | -104.97176 | 14705 ft | 299 kts | 78° |
| 2026-04-26 00:22 | 39.32509 | -104.94609 | 14432 ft | 289 kts | 79° |
| 2026-04-26 00:22 | 39.32966 | -104.92116 | 14173 ft | 280 kts | 78° |
| 2026-04-26 00:23 | 39.33404 | -104.89706 | 13948 ft | 269 kts | 77° |
| 2026-04-26 00:23 | 39.33859 | -104.87386 | 13853 ft | 264 kts | 72° |
| 2026-04-26 00:23 | 39.34428 | -104.85159 | 13669 ft | 263 kts | 72° |
| 2026-04-26 00:23 | 39.34991 | -104.82907 | 13340 ft | 263 kts | 72° |
| 2026-04-26 00:24 | 39.35553 | -104.80656 | 13001 ft | 263 kts | 70° |
| 2026-04-26 00:24 | 39.36477 | -104.78690 | 12706 ft | 258 kts | 42° |
| 2026-04-26 00:24 | 39.37840 | -104.77250 | 12594 ft | 249 kts | 36° |
| 2026-04-26 00:24 | 39.39193 | -104.75895 | 12533 ft | 241 kts | 36° |
| 2026-04-26 00:25 | 39.40516 | -104.74593 | 12474 ft | 236 kts | 36° |
| 2026-04-26 00:25 | 39.41822 | -104.73319 | 12391 ft | 235 kts | 35° |
| 2026-04-26 00:25 | 39.43092 | -104.72088 | 12376 ft | 224 kts | 35° |
| 2026-04-26 00:25 | 39.44323 | -104.70901 | 12293 ft | 217 kts | 36° |
| 2026-04-26 00:26 | 39.45527 | -104.69742 | 12155 ft | 214 kts | 36° |
| 2026-04-26 00:26 | 39.46725 | -104.68592 | 12030 ft | 213 kts | 36° |
| 2026-04-26 00:26 | 39.47910 | -104.67473 | 11942 ft | 213 kts | 31° |
| 2026-04-26 00:26 | 39.49278 | -104.66848 | 11739 ft | 207 kts | 3° |
| 2026-04-26 00:27 | 39.50729 | -104.66677 | 11517 ft | 209 kts | 2° |
| 2026-04-26 00:27 | 39.52168 | -104.66531 | 11268 ft | 209 kts | 1° |
| 2026-04-26 00:27 | 39.53624 | -104.66445 | 11009 ft | 209 kts | 360° |
| 2026-04-26 00:27 | 39.55080 | -104.66400 | 10776 ft | 208 kts | 359° |
| 2026-04-26 00:28 | 39.56531 | -104.66374 | 10518 ft | 209 kts | 358° |
| 2026-04-26 00:28 | 39.57986 | -104.66354 | 10266 ft | 209 kts | 359° |
| 2026-04-26 00:28 | 39.59424 | -104.66337 | 10020 ft | 209 kts | 359° |
| 2026-04-26 00:28 | 39.60885 | -104.66318 | 9760 ft | 209 kts | 359° |
| 2026-04-26 00:29 | 39.62346 | -104.66300 | 9479 ft | 209 kts | 359° |
| 2026-04-26 00:29 | 39.63795 | -104.66282 | 9194 ft | 207 kts | 360° |
| 2026-04-26 00:29 | 39.65231 | -104.66265 | 8908 ft | 205 kts | 0° |
| 2026-04-26 00:29 | 39.66639 | -104.66249 | 8636 ft | 204 kts | 0° |
| 2026-04-26 00:30 | 39.68056 | -104.66232 | 8382 ft | 201 kts | 1° |
| 2026-04-26 00:30 | 39.69440 | -104.66215 | 8126 ft | 197 kts | 2° |
| 2026-04-26 00:30 | 39.70792 | -104.66200 | 7867 ft | 190 kts | 2° |
| 2026-04-26 00:30 | 39.72081 | -104.66185 | 7607 ft | 181 kts | 3° |
| 2026-04-26 00:31 | 39.73318 | -104.66171 | 7370 ft | 175 kts | 3° |
| 2026-04-26 00:31 | 39.74520 | -104.66156 | 7130 ft | 170 kts | 4° |
| 2026-04-26 00:31 | 39.75693 | -104.66141 | 6917 ft | 170 kts | 5° |
| 2026-04-26 00:31 | 39.76865 | -104.66127 | 6710 ft | 167 kts | 5° |
| 2026-04-26 00:32 | 39.78017 | -104.66114 | 6494 ft | 164 kts | 5° |
| 2026-04-26 00:32 | 39.79145 | -104.66101 | 6280 ft | 159 kts | 7° |
| 2026-04-26 00:32 | 39.81297 | -104.66074 | 5795 ft | 152 kts | 4° |
| 2026-04-26 00:33 | 39.82347 | -104.66069 | 5624 ft | 151 kts | 5° |
| 2026-04-26 00:33 | 39.83385 | -104.66064 | 5440 ft | 141 kts | 6° |
| 2026-04-26 00:33 | 39.84257 | -104.66037 | 5419 ft | 102 kts | 1° |
| 2026-04-26 00:33 | 39.84696 | -104.66055 | 5402 ft | 27 kts | 347° |
| 2026-04-26 00:34 | 39.84874 | -104.66137 | 5406 ft | 13 kts | 332° |
| 2026-04-26 00:34 | 39.84893 | -104.66150 | 5401 ft | 4 kts | 332° |
| 2026-04-26 00:34 | 39.84929 | -104.66175 | 5397 ft | 8 kts | 331° |
| 2026-04-26 00:34 | 39.84988 | -104.66214 | 5402 ft | 10 kts | 335° |
| 2026-04-26 00:35 | 39.85057 | -104.66242 | 5400 ft | 11 kts | 353° |
| 2026-04-26 00:35 | 39.85144 | -104.66245 | 5399 ft | 14 kts | 1° |
| 2026-04-26 00:35 | 39.85256 | -104.66243 | 5399 ft | 17 kts | 1° |
| 2026-04-26 00:35 | 39.85384 | -104.66241 | 5395 ft | 19 kts | 0° |
| 2026-04-26 00:36 | 39.85524 | -104.66238 | 5396 ft | 22 kts | 0° |
| 2026-04-26 00:36 | 39.85659 | -104.66254 | 5396 ft | 16 kts | 327° |
| 2026-04-26 00:36 | 39.85683 | -104.66386 | 5389 ft | 18 kts | 259° |
| 2026-04-26 00:36 | 39.85689 | -104.66501 | 5389 ft | 7 kts | 309° |
| 2026-04-26 00:37 | 39.85723 | -104.66520 | 5385 ft | 4 kts | 354° |
| 2026-04-26 00:37 | 39.85751 | -104.66513 | 5389 ft | 5 kts | 17° |
| 2026-04-26 00:37 | 39.85793 | -104.66497 | 5389 ft | 8 kts | 14° |
| 2026-04-26 00:37 | 39.85823 | -104.66536 | 5389 ft | 6 kts | 275° |
| 2026-04-26 00:38 | 39.85837 | -104.66574 | 5389 ft | 4 kts | 301° |
| 2026-04-26 00:38 | 39.85855 | -104.66586 | 5389 ft | 0 kts | 355° |
| 2026-04-26 00:38 | 39.85856 | -104.66586 | 5389 ft | 0 kts | 355° |